Navy Supply Corps School, Georgia
Current Conditions -  °F | °C
As of 11:51 AM on Saturday 22 Nov 2014 (Local Time) from KAHN Reporting Station
Clear Clear  
Wind Chill: 51°   Ceiling: Unl
Heat Index: 51°   Visibility: 10mi
Dew Point: 23°   Wind: 6mph
Humidity: 33%   Direction: 60°ENE
Pressure: 30.46"   Gusts: NA
Location:  33.9381°N, 83.4292°W
Report Text: KAHN 221651Z 06005KT 10SM CLR 11/M05 A3046 RMK AO2 SLP319 T01061050 $
Loading
Personal Weather Stations






























Interactive Weather Map New forecast layout! Learn more

10-Day Weather Forecast

Advertisements
Track Severe Weather on mobile